Time;durP1;ratioP1;P1;durP2;ratioP2;P2;SDS_P1;SDS_P2;PMS_P1;PMS_P2;Temp;Humidity;BMP_temperature;BMP_pressure;BME280_temperature;BME280_humidity;BME280_pressure;Samples;Min_cycle;Max_cycle;Signal;HPM_P1;HPM_P2
2023/01/17 00:02:04;;;;;;;27.27;16.95;;;2.00;99.90;;;;;;5032749;28;20074;-82
2023/01/17 00:10:21;;;;;;;30.15;15.73;;;1.90;99.90;;;;;;5071563;28;20451;-82
2023/01/17 00:12:56;;;;;;;27.27;15.35;;;1.90;99.90;;;;;;5041356;28;20140;-82
2023/01/17 00:15:22;;;;;;;32.22;18.77;;;1.90;99.90;;;;;;5032661;28;20069;-82
2023/01/17 00:17:49;;;;;;;21.73;14.90;;;1.90;99.90;;;;;;5032655;28;20057;-83
2023/01/17 00:26:02;;;;;;;27.00;14.93;;;1.90;99.90;;;;;;5050040;28;20072;-81
2023/01/17 01:35:26;;;;;;;20.20;11.45;;;2.40;99.90;;;;;;5029875;28;20028;-79
2023/01/17 01:37:52;;;;;;;23.20;12.45;;;2.40;99.90;;;;;;5012377;28;20033;-80
2023/01/17 01:40:18;;;;;;;23.38;13.32;;;2.40;99.90;;;;;;5032929;28;20025;-80
2023/01/17 01:42:51;;;;;;;20.75;11.82;;;2.50;99.90;;;;;;5015333;28;20109;-82
2023/01/17 01:45:24;;;;;;;45.60;19.20;;;2.50;99.90;;;;;;5033232;28;20029;-79
2023/01/17 01:47:53;;;;;;;28.98;13.80;;;2.50;99.90;;;;;;5033022;28;20382;-79
2023/01/17 01:50:20;;;;;;;21.50;11.88;;;2.50;99.90;;;;;;5014882;28;20116;-83
2023/01/17 01:52:51;;;;;;;21.45;11.13;;;2.50;99.90;;;;;;5032385;28;20059;-85
2023/01/17 01:55:21;;;;;;;15.73;11.02;;;2.60;99.90;;;;;;5015522;28;20048;-82
2023/01/17 01:57:50;;;;;;;17.27;10.95;;;2.60;99.90;;;;;;5015255;28;20029;-82
2023/01/17 02:00:22;;;;;;;20.88;13.18;;;2.60;99.90;;;;;;5032752;28;20017;-81
2023/01/17 02:02:49;;;;;;;38.47;21.98;;;2.70;99.90;;;;;;5032671;28;20022;-82
2023/01/17 02:05:19;;;;;;;46.45;26.17;;;2.70;99.90;;;;;;5014887;28;20179;-82
2023/01/17 02:08:00;;;;;;;39.78;22.83;;;2.70;99.90;;;;;;5015130;28;20032;-82
2023/01/17 02:10:25;;;;;;;32.15;18.13;;;2.70;99.90;;;;;;5032682;28;20139;-83
2023/01/17 02:12:53;;;;;;;17.85;13.20;;;2.60;99.90;;;;;;5014358;28;20511;-82
2023/01/17 02:15:23;;;;;;;21.48;14.93;;;2.60;99.90;;;;;;5014671;28;20041;-82
2023/01/17 02:17:55;;;;;;;17.95;12.50;;;2.60;99.90;;;;;;5032323;28;20467;-82
2023/01/17 02:20:33;;;;;;;18.73;12.32;;;2.60;99.90;;;;;;5032374;28;20018;-83
2023/01/17 02:23:17;;;;;;;16.92;11.93;;;2.60;99.90;;;;;;5014572;28;20029;-83
2023/01/17 02:26:14;;;;;;;17.98;13.18;;;2.50;99.90;;;;;;5014523;28;20032;-80
2023/01/17 02:29:32;;;;;;;21.77;11.40;;;2.50;99.90;;;;;;5032344;28;20022;-80
2023/01/17 02:32:22;;;;;;;22.90;13.43;;;2.50;99.90;;;;;;5014425;28;20053;-81
2023/01/17 02:35:26;;;;;;;15.30;10.88;;;2.40;99.90;;;;;;5048742;28;20072;-81
2023/01/17 02:38:13;;;;;;;17.88;12.48;;;2.40;99.90;;;;;;5052055;28;20025;-83
2023/01/17 02:40:47;;;;;;;21.85;13.25;;;2.30;99.90;;;;;;5034121;28;20025;-83
2023/01/17 02:43:15;;;;;;;32.92;20.00;;;2.30;99.90;;;;;;5051863;28;20018;-82
2023/01/17 02:45:41;;;;;;;40.55;24.00;;;2.30;99.90;;;;;;5034036;28;20078;-82
2023/01/17 02:48:10;;;;;;;23.00;14.82;;;2.30;99.90;;;;;;5051748;28;20486;-81
2023/01/17 02:51:02;;;;;;;19.48;12.93;;;2.20;99.90;;;;;;5051595;28;20027;-81
2023/01/17 02:53:43;;;;;;;21.02;13.10;;;2.20;99.90;;;;;;5020681;28;20097;-81
2023/01/17 02:56:30;;;;;;;19.75;13.05;;;2.20;99.90;;;;;;5033891;28;20036;-81
2023/01/17 02:58:55;;;;;;;18.17;11.65;;;2.10;99.90;;;;;;5033765;28;20491;-81
2023/01/17 03:01:33;;;;;;;17.15;11.13;;;2.10;99.90;;;;;;5036603;28;20028;-81
2023/01/17 03:04:11;;;;;;;17.80;10.85;;;2.00;99.90;;;;;;5050319;28;20062;-81
2023/01/17 03:06:45;;;;;;;21.42;11.95;;;2.00;99.90;;;;;;5050322;28;20021;-81
2023/01/17 03:09:14;;;;;;;19.55;12.00;;;1.90;99.90;;;;;;5050393;28;20422;-81
2023/01/17 03:11:40;;;;;;;21.83;11.65;;;1.90;99.90;;;;;;5050125;28;20124;-82
2023/01/17 03:14:06;;;;;;;20.48;11.52;;;1.90;99.90;;;;;;5050202;28;20040;-81
2023/01/17 03:16:32;;;;;;;20.95;13.40;;;1.80;99.90;;;;;;5051324;28;20394;-82
2023/01/17 03:18:58;;;;;;;20.08;12.73;;;1.80;99.90;;;;;;5051410;28;20116;-82
2023/01/17 03:21:23;;;;;;;20.02;13.77;;;1.70;99.90;;;;;;5051162;28;20108;-83
2023/01/17 03:23:49;;;;;;;18.20;10.52;;;1.70;99.90;;;;;;5034825;28;20021;-81
2023/01/17 03:26:15;;;;;;;19.27;12.05;;;1.70;99.90;;;;;;5033415;28;20390;-81
2023/01/17 03:28:41;;;;;;;19.42;12.30;;;1.60;99.90;;;;;;5051188;28;20024;-81
2023/01/17 03:31:06;;;;;;;21.23;12.73;;;1.60;99.90;;;;;;5051059;28;20147;-82
2023/01/17 03:33:32;;;;;;;18.17;12.15;;;1.50;99.90;;;;;;5033233;28;20044;-80
2023/01/17 03:35:58;;;;;;;22.33;12.30;;;1.50;99.90;;;;;;5033339;28;20111;-83
2023/01/17 03:38:25;;;;;;;21.20;12.70;;;1.40;99.90;;;;;;5033335;28;20053;-81
2023/01/17 03:40:51;;;;;;;20.85;12.25;;;1.40;99.90;;;;;;5033123;28;20025;-81
2023/01/17 03:43:16;;;;;;;16.92;11.75;;;1.40;99.90;;;;;;5033181;28;20032;-80
2023/01/17 03:45:42;;;;;;;20.77;12.27;;;1.20;99.90;;;;;;5033037;28;20053;-80
2023/01/17 03:48:07;;;;;;;21.17;12.20;;;1.30;99.90;;;;;;5050840;28;20060;-80
2023/01/17 03:50:33;;;;;;;21.27;13.50;;;1.20;99.90;;;;;;5032913;28;20025;-80
2023/01/17 03:52:59;;;;;;;22.40;13.50;;;1.10;99.90;;;;;;5032955;28;20128;-80
2023/01/17 03:55:24;;;;;;;22.75;13.80;;;1.10;99.90;;;;;;5050711;28;20056;-82
2023/01/17 03:57:50;;;;;;;23.15;14.10;;;1.10;99.90;;;;;;5032930;28;20017;-80
2023/01/17 04:00:16;;;;;;;25.05;12.98;;;1.00;99.90;;;;;;5050220;28;20056;-80
2023/01/17 04:02:42;;;;;;;30.17;19.23;;;1.00;99.90;;;;;;5050420;28;20025;-82
2023/01/17 04:05:08;;;;;;;28.20;17.65;;;1.00;99.90;;;;;;5032789;28;20069;-82
2023/01/17 04:07:33;;;;;;;28.27;17.45;;;1.00;99.90;;;;;;5050650;28;20489;-82
2023/01/17 04:09:59;;;;;;;28.85;15.75;;;1.00;99.90;;;;;;5032784;28;20182;-82
2023/01/17 04:12:24;;;;;;;26.00;16.15;;;0.90;99.90;;;;;;5032563;28;20048;-82
2023/01/17 04:14:50;;;;;;;24.08;16.08;;;0.90;99.90;;;;;;5032656;28;20344;-82
2023/01/17 04:17:18;;;;;;;34.08;19.60;;;0.90;99.90;;;;;;5050261;28;20299;-82
2023/01/17 04:19:44;;;;;;;28.25;17.05;;;0.90;99.90;;;;;;5050469;28;20543;-82
2023/01/17 04:22:10;;;;;;;30.17;18.10;;;0.90;99.90;;;;;;5050379;28;20028;-82
2023/01/17 04:24:36;;;;;;;33.28;19.85;;;0.80;99.90;;;;;;5050512;28;20472;-82
2023/01/17 04:27:03;;;;;;;29.42;19.27;;;0.80;99.90;;;;;;5032397;28;20573;-82
2023/01/17 04:29:29;;;;;;;31.27;18.08;;;0.80;99.90;;;;;;5032644;28;20021;-82
2023/01/17 04:31:54;;;;;;;41.03;21.13;;;0.70;99.90;;;;;;5050299;28;20540;-82
2023/01/17 04:34:20;;;;;;;38.75;21.80;;;0.60;99.90;;;;;;5032393;28;20423;-82
2023/01/17 04:36:46;;;;;;;41.83;23.10;;;0.60;99.90;;;;;;5050054;28;20055;-82
2023/01/17 04:39:11;;;;;;;35.13;21.92;;;0.60;99.90;;;;;;5049987;28;20395;-83
2023/01/17 04:41:37;;;;;;;35.53;19.42;;;0.70;99.90;;;;;;5032314;28;20025;-82
2023/01/17 04:44:03;;;;;;;37.70;20.50;;;0.60;99.90;;;;;;5032325;28;20029;-83
2023/01/17 04:46:28;;;;;;;36.25;19.90;;;0.60;99.90;;;;;;5050432;28;20025;-82
2023/01/17 04:48:54;;;;;;;32.22;19.65;;;0.60;99.90;;;;;;5050468;28;20022;-82
2023/01/17 04:51:20;;;;;;;32.08;20.25;;;0.60;99.90;;;;;;5032269;28;20021;-83
2023/01/17 04:53:45;;;;;;;31.52;18.88;;;0.60;99.90;;;;;;5049856;28;20522;-82
2023/01/17 04:56:11;;;;;;;25.48;15.25;;;0.60;99.90;;;;;;5049816;28;20108;-82
2023/01/17 04:58:36;;;;;;;26.83;15.63;;;0.50;99.90;;;;;;5049817;28;20040;-82
2023/01/17 05:01:04;;;;;;;28.63;15.80;;;0.50;99.90;;;;;;5049820;28;20470;-82
2023/01/17 05:03:30;;;;;;;24.23;14.77;;;0.50;99.90;;;;;;5031963;28;20439;-83
2023/01/17 05:05:55;;;;;;;27.42;15.95;;;0.40;99.90;;;;;;5049728;28;20021;-83
2023/01/17 05:08:21;;;;;;;25.95;16.45;;;0.40;99.90;;;;;;5032279;28;20466;-82
2023/01/17 05:10:46;;;;;;;28.65;15.95;;;0.40;99.90;;;;;;5031916;28;20485;-79
2023/01/17 05:13:13;;;;;;;33.63;16.27;;;0.40;99.90;;;;;;5049780;28;20033;-81
2023/01/17 05:15:39;;;;;;;28.80;15.95;;;0.30;99.90;;;;;;5015613;28;20014;-80
2023/01/17 05:18:07;;;;;;;27.90;15.10;;;0.30;99.90;;;;;;5015093;28;20048;-82
2023/01/17 05:20:34;;;;;;;30.02;15.57;;;0.30;99.90;;;;;;5015461;28;20428;-81
2023/01/17 05:23:00;;;;;;;27.00;16.42;;;0.30;99.90;;;;;;5015386;28;20032;-79
2023/01/17 05:25:31;;;;;;;27.58;15.65;;;0.30;99.90;;;;;;5015483;28;20025;-80
2023/01/17 05:28:00;;;;;;;26.95;15.82;;;0.20;99.90;;;;;;5015705;28;20025;-83
2023/01/17 05:30:28;;;;;;;28.67;16.40;;;0.20;99.90;;;;;;5015381;28;20055;-80
2023/01/17 05:32:56;;;;;;;27.95;15.40;;;0.20;99.90;;;;;;5032373;28;20505;-79
2023/01/17 05:35:24;;;;;;;24.10;13.90;;;0.20;99.90;;;;;;5015075;28;20024;-84
2023/01/17 05:37:50;;;;;;;24.77;14.45;;;0.20;99.90;;;;;;5032870;28;20448;-83
2023/01/17 05:40:17;;;;;;;29.17;15.55;;;0.20;99.90;;;;;;5015295;28;20053;-80
2023/01/17 05:42:48;;;;;;;46.95;21.52;;;0.20;99.90;;;;;;5030357;27;20037;-84
2023/01/17 05:45:15;;;;;;;33.33;18.85;;;0.10;99.90;;;;;;5052822;27;20538;-84
2023/01/17 05:47:46;;;;;;;37.75;18.17;;;0.10;99.90;;;;;;5034279;28;20066;-83
2023/01/17 05:50:13;;;;;;;60.15;31.30;;;0.10;99.90;;;;;;5052696;28;20381;-81
2023/01/17 05:52:40;;;;;;;26.98;16.25;;;0.00;99.90;;;;;;5052579;28;20112;-80
2023/01/17 05:55:06;;;;;;;30.15;17.27;;;0.00;99.90;;;;;;5052719;28;20417;-80
2023/01/17 05:57:33;;;;;;;31.15;18.35;;;0.00;99.90;;;;;;5052520;28;20104;-84
2023/01/17 05:59:59;;;;;;;35.65;18.10;;;0.00;99.90;;;;;;5052825;28;20021;-83
2023/01/17 06:02:24;;;;;;;35.33;20.05;;;0.00;99.90;;;;;;5033908;28;20025;-83
2023/01/17 06:04:50;;;;;;;50.35;27.60;;;0.00;99.90;;;;;;5052318;28;20088;-85
2023/01/17 06:07:18;;;;;;;48.42;24.80;;;-0.10;99.90;;;;;;5034372;28;20489;-84
2023/01/17 06:09:44;;;;;;;46.85;22.15;;;-0.10;99.90;;;;;;5034889;28;20530;-84
2023/01/17 06:12:10;;;;;;;61.55;30.75;;;-0.10;99.90;;;;;;5034586;28;20029;-84
2023/01/17 06:14:36;;;;;;;59.38;25.25;;;0.00;99.90;;;;;;5034312;28;20037;-84
2023/01/17 06:17:01;;;;;;;51.00;27.65;;;0.00;99.90;;;;;;5033509;28;20032;-84
2023/01/17 06:19:27;;;;;;;58.78;29.13;;;0.00;99.90;;;;;;5034267;28;20029;-82
2023/01/17 06:21:52;;;;;;;72.35;31.73;;;0.10;99.90;;;;;;5052121;28;20028;-82
2023/01/17 06:24:18;;;;;;;72.07;31.42;;;0.00;99.90;;;;;;5054651;28;20552;-85
2023/01/17 06:26:44;;;;;;;50.38;26.98;;;0.00;99.90;;;;;;5052191;28;20032;-85
2023/01/17 06:29:12;;;;;;;59.10;26.75;;;0.00;99.90;;;;;;5052158;28;20049;-82
2023/01/17 06:31:38;;;;;;;56.80;30.15;;;0.00;99.90;;;;;;5051439;27;20053;-83
2023/01/17 06:34:04;;;;;;;56.72;30.65;;;0.00;99.90;;;;;;5051801;28;20063;-80
2023/01/17 06:36:31;;;;;;;63.97;30.88;;;0.00;99.90;;;;;;5034208;28;20367;-82
2023/01/17 06:38:57;;;;;;;49.13;25.00;;;0.00;99.90;;;;;;5033893;28;20036;-83
2023/01/17 06:41:24;;;;;;;56.65;28.27;;;0.00;99.90;;;;;;5051806;28;20402;-83
2023/01/17 06:43:52;;;;;;;56.65;27.92;;;0.10;99.90;;;;;;5061017;27;20025;-83
2023/01/17 06:46:17;;;;;;;63.92;33.55;;;0.10;99.90;;;;;;5155990;27;20023;-83
2023/01/17 06:48:43;;;;;;;63.20;30.40;;;0.10;99.90;;;;;;5137865;27;20079;-84
2023/01/17 06:51:09;;;;;;;74.50;33.25;;;0.10;99.90;;;;;;5138028;27;20027;-83
2023/01/17 06:53:35;;;;;;;69.40;33.35;;;0.10;99.90;;;;;;5079746;27;20038;-83
2023/01/17 06:56:01;;;;;;;67.28;33.72;;;0.20;99.90;;;;;;5033688;28;20379;-83
2023/01/17 06:58:26;;;;;;;58.75;30.70;;;0.20;99.90;;;;;;5033599;28;20025;-85
2023/01/17 07:00:52;;;;;;;62.88;31.80;;;0.20;99.90;;;;;;5048798;27;20029;-85
2023/01/17 07:03:23;;;;;;;83.32;37.50;;;0.20;99.90;;;;;;5099368;27;20489;-85
2023/01/17 07:05:49;;;;;;;82.97;38.78;;;0.20;99.90;;;;;;5081290;27;20106;-84
2023/01/17 07:08:15;;;;;;;90.82;42.00;;;0.20;99.90;;;;;;5109185;27;20455;-84
2023/01/17 07:10:46;;;;;;;302.30;113.60;;;0.20;99.90;;;;;;5033665;28;20066;-84
2023/01/17 07:13:12;;;;;;;140.60;64.82;;;0.20;99.90;;;;;;5080004;27;20040;-83
2023/01/17 07:15:38;;;;;;;109.63;49.72;;;0.20;99.90;;;;;;5107088;27;20760;-83
2023/01/17 07:18:05;;;;;;;121.38;53.55;;;0.20;99.90;;;;;;5090307;27;20019;-84
2023/01/17 07:20:31;;;;;;;177.25;76.03;;;0.20;99.90;;;;;;5102117;27;20013;-84
2023/01/17 07:22:57;;;;;;;150.45;66.68;;;0.20;99.90;;;;;;5103161;27;20027;-85
2023/01/17 07:25:22;;;;;;;114.93;53.65;;;0.30;99.90;;;;;;5103455;27;20036;-83
2023/01/17 07:27:51;;;;;;;108.25;47.20;;;0.30;99.90;;;;;;5083108;27;20022;-84
2023/01/17 07:30:17;;;;;;;104.47;52.60;;;0.30;99.90;;;;;;5058100;27;20025;-83
2023/01/17 07:32:43;;;;;;;126.10;56.97;;;0.30;99.90;;;;;;5131862;27;20046;-84
2023/01/17 07:35:08;;;;;;;144.13;65.95;;;0.30;99.90;;;;;;5118236;27;20031;-85
2023/01/17 07:37:34;;;;;;;178.00;73.95;;;0.30;99.90;;;;;;5114109;28;20024;-84
2023/01/17 07:40:01;;;;;;;164.65;70.07;;;0.40;99.90;;;;;;5114100;28;20022;-85
2023/01/17 07:42:27;;;;;;;166.10;74.13;;;0.40;99.90;;;;;;5111427;28;20065;-84
2023/01/17 07:44:52;;;;;;;193.90;78.90;;;0.50;99.90;;;;;;5112985;28;20019;-85
2023/01/17 07:47:18;;;;;;;185.45;84.07;;;0.50;99.90;;;;;;5114059;28;20085;-86
2023/01/17 07:49:44;;;;;;;175.48;76.65;;;0.50;99.90;;;;;;5113491;28;20430;-84
2023/01/17 07:52:10;;;;;;;122.85;57.83;;;0.50;99.90;;;;;;5113006;28;20019;-84
2023/01/17 07:54:35;;;;;;;106.90;54.83;;;0.50;99.90;;;;;;5112807;28;20035;-85
2023/01/17 07:57:02;;;;;;;86.20;44.60;;;0.60;99.90;;;;;;5109822;28;20042;-84
2023/01/17 07:59:27;;;;;;;65.50;37.40;;;0.50;99.90;;;;;;5108246;28;20023;-84
2023/01/17 08:01:53;;;;;;;63.47;32.83;;;0.50;99.90;;;;;;5108384;27;20022;-84
2023/01/17 08:04:19;;;;;;;84.57;41.40;;;0.50;99.90;;;;;;5109530;28;20149;-84
2023/01/17 08:06:50;;;;;;;63.42;34.08;;;0.60;99.90;;;;;;5109786;28;20106;-84
2023/01/17 08:09:16;;;;;;;71.28;36.42;;;0.60;99.90;;;;;;5108352;28;20023;-84
2023/01/17 08:11:41;;;;;;;61.58;33.63;;;0.60;99.90;;;;;;5110106;28;20027;-85
2023/01/17 08:14:07;;;;;;;63.55;33.00;;;0.70;99.90;;;;;;5113123;28;20035;-85
2023/01/17 08:16:33;;;;;;;61.05;31.48;;;0.70;99.90;;;;;;5111729;28;20062;-85
2023/01/17 08:18:58;;;;;;;55.55;32.08;;;0.80;99.90;;;;;;5111951;28;20058;-85
2023/01/17 08:21:24;;;;;;;67.47;36.28;;;0.80;99.90;;;;;;5113065;28;20052;-84
2023/01/17 08:23:51;;;;;;;77.55;42.15;;;0.80;99.90;;;;;;5112989;28;20499;-84
2023/01/17 08:26:21;;;;;;;94.43;47.28;;;0.90;99.90;;;;;;5113087;28;20047;-85
2023/01/17 08:28:54;;;;;;;147.85;71.00;;;0.90;99.90;;;;;;5113019;28;20016;-84
2023/01/17 08:31:21;;;;;;;128.63;63.88;;;1.00;99.90;;;;;;5091163;28;20396;-85
2023/01/17 08:33:46;;;;;;;146.45;73.05;;;1.00;99.90;;;;;;5032071;28;20061;-85
2023/01/17 08:36:12;;;;;;;174.27;83.93;;;1.00;99.90;;;;;;5049203;28;20070;-85
2023/01/17 08:38:37;;;;;;;112.45;57.72;;;1.10;99.90;;;;;;5031429;28;20124;-85
2023/01/17 08:41:03;;;;;;;85.65;47.40;;;1.10;99.90;;;;;;5049191;28;20044;-86
2023/01/17 08:43:29;;;;;;;77.28;45.75;;;1.20;99.90;;;;;;5031750;28;20040;-86
2023/01/17 08:45:54;;;;;;;77.47;41.90;;;1.20;99.90;;;;;;5049002;28;20879;-85
2023/01/17 08:48:22;;;;;;;122.95;59.97;;;1.30;99.90;;;;;;5036686;28;20093;-86
2023/01/17 08:50:48;;;;;;;100.53;52.60;;;1.40;99.90;;;;;;5124340;27;20415;-86
2023/01/17 08:53:15;;;;;;;73.75;41.58;;;1.40;99.90;;;;;;5124584;27;20072;-86
2023/01/17 08:55:41;;;;;;;65.93;38.00;;;1.40;99.90;;;;;;5124701;27;20041;-85
2023/01/17 08:58:06;;;;;;;74.72;41.95;;;1.50;99.90;;;;;;5055576;28;20057;-86
2023/01/17 09:00:33;;;;;;;81.22;44.67;;;1.50;99.90;;;;;;5055714;27;20532;-84
2023/01/17 09:03:00;;;;;;;81.75;42.65;;;1.50;99.90;;;;;;5056060;27;20071;-82
2023/01/17 09:05:26;;;;;;;84.43;44.67;;;1.60;99.90;;;;;;5124723;27;20430;-81
2023/01/17 09:07:51;;;;;;;120.18;61.80;;;1.60;99.90;;;;;;5124136;27;20478;-81
2023/01/17 09:10:17;;;;;;;122.03;64.25;;;1.60;99.90;;;;;;5125458;27;20024;-82
2023/01/17 09:12:43;;;;;;;107.15;57.92;;;1.60;99.90;;;;;;5056793;28;20493;-81
2023/01/17 09:15:09;;;;;;;95.93;50.38;;;1.70;99.90;;;;;;5056492;28;20025;-81
2023/01/17 09:17:35;;;;;;;91.13;47.88;;;1.70;99.90;;;;;;5125293;27;20040;-81
2023/01/17 09:20:00;;;;;;;72.75;39.75;;;1.70;99.90;;;;;;5125134;27;20101;-81
2023/01/17 09:22:26;;;;;;;65.70;36.85;;;1.70;99.90;;;;;;5125693;27;20025;-81
2023/01/17 09:24:52;;;;;;;92.65;51.50;;;1.70;99.90;;;;;;5055907;28;20037;-81
2023/01/17 09:27:19;;;;;;;75.50;44.80;;;1.70;99.90;;;;;;5125423;27;20059;-81
2023/01/17 09:29:45;;;;;;;121.50;62.50;;;1.70;99.90;;;;;;5056063;28;20014;-81
2023/01/17 09:32:11;;;;;;;147.52;78.57;;;1.70;99.90;;;;;;5125253;27;20387;-81
2023/01/17 09:34:36;;;;;;;106.70;59.20;;;1.80;99.90;;;;;;5125285;27;20041;-81
2023/01/17 09:37:02;;;;;;;83.40;44.65;;;1.80;99.90;;;;;;5124486;27;20021;-81
2023/01/17 09:39:27;;;;;;;96.18;49.53;;;1.80;99.90;;;;;;5038148;28;20530;-82
2023/01/17 09:42:20;;;;;;;85.28;44.83;;;1.80;99.90;;;;;;5055826;28;20029;-81
2023/01/17 09:44:50;;;;;;;60.10;32.47;;;1.90;99.90;;;;;;5038156;28;20036;-81
2023/01/17 09:47:27;;;;;;;55.35;31.17;;;1.90;99.90;;;;;;5038640;28;20071;-81
2023/01/17 09:49:59;;;;;;;56.72;31.27;;;1.90;99.90;;;;;;5055758;28;20363;-81
2023/01/17 09:52:29;;;;;;;163.70;73.57;;;2.00;99.90;;;;;;5055693;27;20021;-82
2023/01/17 09:54:55;;;;;;;93.43;44.75;;;2.00;99.90;;;;;;5038312;28;20017;-82
2023/01/17 09:57:37;;;;;;;102.82;49.78;;;2.00;99.90;;;;;;5055760;28;20363;-82
2023/01/17 10:00:15;;;;;;;129.50;54.83;;;2.10;99.90;;;;;;5033796;28;20044;-82
2023/01/17 10:03:25;;;;;;;73.90;37.50;;;2.10;99.90;;;;;;5034698;28;20032;-82
2023/01/17 10:06:00;;;;;;;49.92;29.70;;;2.20;99.90;;;;;;5034459;28;20029;-82
2023/01/17 10:08:56;;;;;;;47.60;24.25;;;2.30;99.90;;;;;;5051476;28;20033;-82
2023/01/17 10:12:00;;;;;;;38.03;23.38;;;2.30;99.90;;;;;;5033753;28;20025;-82
2023/01/17 10:15:06;;;;;;;50.30;25.77;;;2.40;99.90;;;;;;5033748;28;20048;-82
2023/01/17 10:17:49;;;;;;;45.47;25.83;;;2.60;99.90;;;;;;5033920;28;20060;-82
2023/01/17 10:21:04;;;;;;;47.42;26.88;;;2.60;99.90;;;;;;5033168;28;20128;-82
2023/01/17 10:24:02;;;;;;;51.92;27.20;;;2.80;99.90;;;;;;5053253;28;20045;-82
2023/01/17 10:26:28;;;;;;;45.92;25.85;;;2.90;99.90;;;;;;5052911;28;20029;-82
2023/01/17 10:29:03;;;;;;;90.47;42.92;;;2.90;99.90;;;;;;5052224;28;20439;-82
2023/01/17 10:31:42;;;;;;;58.17;29.73;;;2.90;99.90;;;;;;5066688;27;20060;-82
2023/01/17 10:34:22;;;;;;;45.40;25.27;;;3.00;99.90;;;;;;5033184;28;20037;-82
2023/01/17 10:36:52;;;;;;;34.90;21.52;;;3.00;99.90;;;;;;5050308;28;20025;-82
2023/01/17 10:39:27;;;;;;;41.92;23.05;;;3.10;99.90;;;;;;5033505;28;20025;-82
2023/01/17 10:42:01;;;;;;;37.25;21.83;;;3.20;99.90;;;;;;5033646;28;20111;-82
2023/01/17 10:44:40;;;;;;;40.90;21.65;;;3.20;99.90;;;;;;5033177;28;20438;-82
2023/01/17 10:47:08;;;;;;;36.03;21.23;;;3.40;99.90;;;;;;5033027;28;20522;-83
2023/01/17 10:49:45;;;;;;;36.05;19.40;;;3.40;99.90;;;;;;5034261;28;20022;-83
2023/01/17 10:52:28;;;;;;;31.75;19.85;;;3.40;99.90;;;;;;5049656;28;20021;-82
2023/01/17 10:55:30;;;;;;;51.90;23.75;;;3.40;99.90;;;;;;5049740;28;20606;-82
2023/01/17 10:57:59;;;;;;;43.25;21.58;;;3.50;99.90;;;;;;5031876;28;20036;-82
2023/01/17 11:00:42;;;;;;;27.60;14.95;;;3.60;99.90;;;;;;5031714;28;20021;-83
2023/01/17 11:03:10;;;;;;;27.20;13.13;;;3.70;99.90;;;;;;5031920;28;20024;-83
2023/01/17 11:05:35;;;;;;;20.65;11.95;;;3.70;99.90;;;;;;5032121;28;20025;-82
2023/01/17 11:08:04;;;;;;;18.95;10.02;;;3.80;99.90;;;;;;5033424;28;20423;-83
2023/01/17 11:10:41;;;;;;;18.17;11.30;;;3.80;99.90;;;;;;5033574;28;20082;-83
2023/01/17 11:13:37;;;;;;;19.25;9.88;;;3.90;99.90;;;;;;5050958;28;20044;-83
2023/01/17 11:16:08;;;;;;;16.60;10.68;;;4.00;99.90;;;;;;5051384;28;20033;-83
2023/01/17 11:18:37;;;;;;;17.35;10.38;;;4.10;99.90;;;;;;5051579;28;20024;-83
2023/01/17 11:21:10;;;;;;;17.20;9.23;;;4.10;99.90;;;;;;5051150;28;20032;-83
2023/01/17 11:23:40;;;;;;;15.07;8.38;;;4.10;99.90;;;;;;5033716;28;20484;-83
2023/01/17 11:26:10;;;;;;;17.27;7.70;;;4.20;99.90;;;;;;5032999;28;20021;-83
2023/01/17 11:28:37;;;;;;;11.18;7.28;;;4.20;99.90;;;;;;5033334;28;20057;-83
2023/01/17 11:31:06;;;;;;;15.60;7.70;;;4.30;99.90;;;;;;5033719;28;20045;-83
2023/01/17 11:33:43;;;;;;;13.88;8.18;;;4.30;99.90;;;;;;5033214;28;20029;-83
2023/01/17 11:36:19;;;;;;;14.10;6.95;;;4.40;99.90;;;;;;5028244;28;20033;-83
2023/01/17 11:39:05;;;;;;;13.77;6.60;;;4.40;99.90;;;;;;5021854;28;20123;-83
2023/01/17 11:41:37;;;;;;;12.35;7.55;;;4.40;99.90;;;;;;5031490;28;20032;-83
2023/01/17 11:44:46;;;;;;;10.88;7.07;;;4.50;99.90;;;;;;5049051;28;20169;-83
2023/01/17 11:47:17;;;;;;;12.15;6.25;;;4.50;99.90;;;;;;5048839;28;20107;-84
2023/01/17 11:49:47;;;;;;;9.15;6.03;;;4.60;99.90;;;;;;5049399;28;20037;-84
2023/01/17 11:52:25;;;;;;;8.63;5.57;;;4.60;99.90;;;;;;5031081;28;20021;-84
2023/01/17 11:54:53;;;;;;;9.30;5.47;;;4.60;99.90;;;;;;5085839;27;20074;-83
2023/01/17 11:57:33;;;;;;;9.15;5.88;;;4.70;99.90;;;;;;5071153;27;20022;-83
2023/01/17 12:00:37;;;;;;;9.02;5.75;;;4.70;95.80;;;;;;5087126;27;20076;-83
2023/01/17 12:03:09;;;;;;;;;;;4.70;96.50;;;;;;5083685;27;20417;-83
2023/01/17 12:05:47;;;;;;;8.80;4.82;;;4.80;95.50;;;;;;5102814;27;19905;-84
2023/01/17 12:08:31;;;;;;;9.00;5.20;;;4.80;93.40;;;;;;5080943;27;20014;-83
2023/01/17 12:11:05;;;;;;;7.00;4.78;;;4.80;93.40;;;;;;5102945;27;20604;-83
2023/01/17 12:14:00;;;;;;;6.75;4.65;;;4.80;89.50;;;;;;5095186;27;20112;-84
2023/01/17 12:16:43;;;;;;;6.82;4.97;;;4.80;88.60;;;;;;5095167;27;20096;-83
2023/01/17 12:19:31;;;;;;;7.28;4.13;;;4.80;87.00;;;;;;5154744;27;20042;-83
2023/01/17 12:22:02;;;;;;;13.73;8.07;;;4.80;86.70;;;;;;5087806;27;20019;-84
2023/01/17 12:24:28;;;;;;;9.82;5.00;;;4.90;90.50;;;;;;5103279;27;20070;-83
2023/01/17 12:26:57;;;;;;;16.63;7.40;;;5.00;90.70;;;;;;5077077;27;20032;-84
2023/01/17 12:29:42;;;;;;;7.35;5.13;;;5.00;92.60;;;;;;5101806;27;20015;-84
2023/01/17 12:32:20;;;;;;;6.40;3.92;;;5.00;89.00;;;;;;5102447;27;20094;-84
2023/01/17 12:34:52;;;;;;;7.38;4.28;;;5.00;87.00;;;;;;5100163;27;20032;-84
2023/01/17 12:37:36;;;;;;;9.07;4.95;;;5.00;86.50;;;;;;5093481;27;20028;-84
2023/01/17 12:40:23;;;;;;;9.82;5.13;;;5.00;85.60;;;;;;5078339;27;20013;-84
2023/01/17 12:42:59;;;;;;;6.75;4.97;;;5.00;84.30;;;;;;5029574;28;20467;-84
2023/01/17 12:45:35;;;;;;;7.95;5.13;;;5.00;84.00;;;;;;5048589;27;20025;-84
2023/01/17 12:48:07;;;;;;;10.93;5.93;;;5.10;87.40;;;;;;5106046;27;20455;-84
2023/01/17 12:50:42;;;;;;;;;;;5.10;88.10;;;;;;5102156;27;20028;-84
2023/01/17 12:53:33;;;;;;;6.85;3.88;;;5.10;88.50;;;;;;5095539;27;19913;-84
2023/01/17 12:56:21;;;;;;;5.95;3.78;;;5.10;84.90;;;;;;5105512;27;20479;-84
2023/01/17 12:58:51;;;;;;;8.18;3.50;;;5.10;83.90;;;;;;5094563;27;20481;-84
2023/01/17 13:01:34;;;;;;;6.20;4.25;;;5.10;84.90;;;;;;5096096;27;20019;-84
2023/01/17 13:04:18;;;;;;;5.50;3.67;;;5.10;82.80;;;;;;5087075;27;20023;-84
2023/01/17 13:06:59;;;;;;;4.53;3.75;;;5.20;83.30;;;;;;5154501;27;20054;-84
2023/01/17 13:09:28;;;;;;;5.57;3.67;;;5.10;80.20;;;;;;5136547;27;20035;-83
2023/01/17 13:12:02;;;;;;;6.20;3.60;;;5.10;79.90;;;;;;5117018;27;20022;-83
2023/01/17 13:14:28;;;;;;;9.23;5.63;;;5.10;81.10;;;;;;5012220;28;20398;-83
2023/01/17 13:17:01;;;;;;;7.05;4.43;;;5.00;81.00;;;;;;5029764;28;20021;-83
2023/01/17 13:19:40;;;;;;;;;;;5.10;80.80;;;;;;5030017;28;20024;-83
2023/01/17 13:22:16;;;;;;;6.30;4.03;;;5.00;81.10;;;;;;5011714;28;19909;-83
2023/01/17 13:25:11;;;;;;;4.55;3.40;;;5.00;79.80;;;;;;5011832;28;20413;-83
2023/01/17 13:28:22;;;;;;;5.00;2.92;;;5.00;78.50;;;;;;5029601;28;20030;-83
2023/01/17 13:31:06;;;;;;;5.05;3.63;;;5.00;76.80;;;;;;5020119;28;20083;-83
2023/01/17 13:33:40;;;;;;;5.50;3.08;;;4.90;77.10;;;;;;5029527;28;20041;-83
2023/01/17 13:36:52;;;;;;;4.43;2.83;;;4.90;77.70;;;;;;5033370;28;20141;-83
2023/01/17 13:39:27;;;;;;;6.03;2.97;;;4.90;74.50;;;;;;5015263;28;20490;-83
2023/01/17 13:42:07;;;;;;;14.63;7.82;;;4.90;76.00;;;;;;5015796;28;20037;-83
2023/01/17 13:44:33;;;;;;;7.70;4.53;;;4.90;73.90;;;;;;5033023;28;20093;-83
2023/01/17 13:46:59;;;;;;;10.77;7.07;;;4.90;75.40;;;;;;5032794;28;20102;-83
2023/01/17 13:49:28;;;;;;;23.42;13.35;;;4.90;74.60;;;;;;5015048;28;20390;-83
2023/01/17 13:52:19;;;;;;;11.38;9.30;;;4.90;74.90;;;;;;5015331;28;20502;-83
2023/01/17 13:54:53;;;;;;;14.20;10.70;;;4.90;76.10;;;;;;5032735;28;20091;-83
2023/01/17 13:57:22;;;;;;;17.67;14.05;;;4.90;75.50;;;;;;5032711;28;20033;-82
2023/01/17 13:59:48;;;;;;;11.88;9.55;;;4.90;75.90;;;;;;5015114;28;20025;-83
2023/01/17 14:02:32;;;;;;;8.98;6.40;;;4.90;76.40;;;;;;5032367;28;20018;-83
2023/01/17 14:05:16;;;;;;;8.13;5.38;;;4.90;76.60;;;;;;5032560;28;20044;-83
2023/01/17 14:07:56;;;;;;;6.35;4.13;;;4.80;75.60;;;;;;5015050;28;20026;-83
2023/01/17 14:10:40;;;;;;;5.70;4.57;;;4.80;75.60;;;;;;5015142;28;20502;-83
2023/01/17 14:13:31;;;;;;;8.23;4.15;;;4.80;76.40;;;;;;5014841;28;20040;-83
2023/01/17 14:15:57;;;;;;;7.70;4.45;;;4.80;77.10;;;;;;5124368;27;20200;-82
2023/01/17 14:18:34;;;;;;;9.20;3.97;;;4.70;78.10;;;;;;5130122;27;20019;-83
2023/01/17 14:21:09;;;;;;;7.72;4.30;;;4.70;78.90;;;;;;5121706;27;20056;-82
2023/01/17 14:24:15;;;;;;;7.25;4.10;;;4.60;78.50;;;;;;5071391;27;20552;-83